Time;durP1;ratioP1;P1;durP2;ratioP2;P2;SDS_P1;SDS_P2;PMS_P1;PMS_P2;Temp;Humidity;BMP_temperature;BMP_pressure;BME280_temperature;BME280_humidity;BME280_pressure;Samples;Min_cycle;Max_cycle;Signal;HPM_P1;HPM_P2
2023/03/17 00:00:20;;;;;;;2.37;2.13;;;7.20;97.30;;;;;;5008888;28;20284;-67
2023/03/17 00:02:48;;;;;;;3.13;2.10;;;7.20;97.30;;;;;;5008616;28;20276;-67
2023/03/17 00:05:24;;;;;;;4.80;2.40;;;7.20;97.30;;;;;;5008570;28;20324;-67
2023/03/17 00:07:54;;;;;;;2.47;2.10;;;7.20;97.40;;;;;;5008587;28;20193;-67
2023/03/17 00:10:23;;;;;;;4.37;2.20;;;7.10;97.40;;;;;;5008492;28;21052;-67
2023/03/17 00:12:52;;;;;;;4.30;2.10;;;7.10;97.60;;;;;;5008371;28;20584;-67
2023/03/17 00:15:19;;;;;;;4.77;2.13;;;7.10;97.60;;;;;;5008487;28;20630;-67
2023/03/17 00:17:47;;;;;;;5.10;2.33;;;7.00;97.70;;;;;;5008580;28;20251;-68
2023/03/17 00:20:22;;;;;;;4.87;2.33;;;7.00;97.70;;;;;;5008181;28;20596;-68
2023/03/17 00:22:50;;;;;;;2.43;2.23;;;7.00;97.80;;;;;;5008030;28;20369;-67
2023/03/17 00:25:21;;;;;;;2.67;2.10;;;7.00;97.80;;;;;;5007956;28;20296;-68
2023/03/17 00:27:49;;;;;;;3.73;2.10;;;7.00;97.80;;;;;;5008306;28;20296;-70
2023/03/17 00:30:16;;;;;;;2.10;1.90;;;7.00;97.80;;;;;;5007790;28;20213;-70
2023/03/17 00:32:45;;;;;;;3.47;2.77;;;6.90;97.80;;;;;;5007776;28;20280;-70
2023/03/17 00:35:18;;;;;;;2.30;2.10;;;6.90;97.90;;;;;;5007842;28;20237;-70
2023/03/17 00:37:45;;;;;;;2.20;2.00;;;6.90;98.00;;;;;;5007289;28;20567;-70
2023/03/17 00:40:19;;;;;;;3.53;2.30;;;6.90;98.00;;;;;;5007580;28;20209;-70
2023/03/17 00:42:46;;;;;;;3.90;2.53;;;6.90;98.00;;;;;;5007337;28;20201;-70
2023/03/17 00:45:14;;;;;;;2.70;2.23;;;6.90;98.00;;;;;;5007526;28;20221;-70
2023/03/17 00:47:41;;;;;;;3.30;2.43;;;6.90;98.00;;;;;;5007938;28;20217;-69
2023/03/17 00:50:13;;;;;;;2.77;2.20;;;6.90;98.10;;;;;;5008027;28;20216;-70
2023/03/17 00:52:40;;;;;;;2.57;1.90;;;6.90;98.10;;;;;;5007600;28;20194;-69
2023/03/17 00:55:08;;;;;;;3.33;2.57;;;6.90;98.10;;;;;;5007790;28;20236;-70
2023/03/17 00:57:37;;;;;;;3.23;2.70;;;6.80;98.20;;;;;;5007956;28;20240;-70
2023/03/17 01:00:06;;;;;;;2.90;2.43;;;6.80;98.10;;;;;;5001471;28;20306;-70
2023/03/17 01:02:33;;;;;;;3.97;3.27;;;6.80;98.10;;;;;;4999503;28;20205;-68
2023/03/17 01:05:00;;;;;;;4.23;3.30;;;6.80;98.20;;;;;;5007554;28;20264;-68
2023/03/17 01:07:29;;;;;;;5.07;3.77;;;6.80;98.20;;;;;;5007212;28;20667;-68
2023/03/17 01:09:56;;;;;;;4.53;4.20;;;6.80;98.10;;;;;;5006999;28;20237;-69
2023/03/17 01:12:23;;;;;;;4.83;3.90;;;6.80;98.20;;;;;;5006974;28;20205;-69
2023/03/17 01:14:51;;;;;;;6.97;3.70;;;6.80;98.20;;;;;;5006727;28;20319;-69
2023/03/17 01:17:19;;;;;;;4.20;3.00;;;6.80;98.20;;;;;;5007255;28;20300;-69
2023/03/17 01:19:47;;;;;;;4.93;3.30;;;6.80;98.30;;;;;;5007076;28;20316;-70
2023/03/17 01:22:14;;;;;;;3.43;3.13;;;6.80;98.30;;;;;;5007294;28;20617;-69
2023/03/17 01:24:41;;;;;;;4.50;3.20;;;6.80;98.40;;;;;;5007115;28;20308;-68
2023/03/17 01:27:08;;;;;;;4.83;3.10;;;6.80;98.70;;;;;;5007267;28;20214;-68
2023/03/17 01:29:35;;;;;;;3.37;2.60;;;6.70;98.30;;;;;;5006658;28;20201;-70
2023/03/17 01:32:04;;;;;;;4.03;2.70;;;6.70;98.30;;;;;;5007115;28;20202;-70
2023/03/17 01:34:31;;;;;;;3.17;2.80;;;6.70;98.30;;;;;;5007410;28;20214;-70
2023/03/17 01:36:58;;;;;;;4.43;2.50;;;6.70;98.30;;;;;;5006937;28;20232;-70
2023/03/17 01:39:26;;;;;;;3.20;2.50;;;6.70;98.40;;;;;;5007230;28;20217;-70
2023/03/17 01:41:56;;;;;;;3.80;2.70;;;6.70;98.40;;;;;;5007148;28;20323;-70
2023/03/17 01:44:24;;;;;;;6.50;2.97;;;6.60;98.50;;;;;;5006531;28;20213;-69
2023/03/17 01:46:51;;;;;;;3.37;2.70;;;6.60;98.50;;;;;;5006981;28;20580;-69
2023/03/17 01:49:34;;;;;;;4.17;2.83;;;6.60;98.50;;;;;;5006994;28;20209;-69
2023/03/17 01:52:06;;;;;;;3.47;2.70;;;6.60;98.60;;;;;;5007294;28;20952;-69
2023/03/17 01:54:37;;;;;;;3.10;2.57;;;6.60;98.60;;;;;;5006798;28;20201;-70
2023/03/17 01:57:10;;;;;;;3.83;2.73;;;6.60;98.70;;;;;;5007259;28;20695;-69
2023/03/17 01:59:42;;;;;;;3.33;2.70;;;6.50;98.70;;;;;;5006622;28;20204;-69
2023/03/17 02:02:12;;;;;;;4.23;2.67;;;6.50;98.70;;;;;;4987480;28;20190;-69
2023/03/17 02:04:40;;;;;;;2.70;2.43;;;6.50;98.90;;;;;;4987511;28;20296;-69
2023/03/17 02:07:08;;;;;;;5.10;2.70;;;6.50;99.00;;;;;;4987418;28;20218;-70
2023/03/17 02:09:36;;;;;;;3.07;2.67;;;6.50;99.20;;;;;;4996099;28;20774;-70
2023/03/17 02:12:04;;;;;;;3.23;2.93;;;6.50;99.10;;;;;;5006941;28;20210;-70
2023/03/17 02:14:31;;;;;;;6.17;2.90;;;6.50;99.10;;;;;;5009521;28;20634;-70
2023/03/17 02:16:58;;;;;;;4.30;3.00;;;6.50;99.20;;;;;;5010549;28;20761;-69
2023/03/17 02:19:25;;;;;;;3.67;3.07;;;6.50;99.30;;;;;;5010700;28;20608;-69
2023/03/17 02:21:56;;;;;;;3.93;2.63;;;6.40;99.00;;;;;;5010528;28;20461;-69
2023/03/17 02:24:29;;;;;;;4.47;3.03;;;6.50;99.60;;;;;;5010880;28;20204;-69
2023/03/17 02:27:00;;;;;;;4.33;2.93;;;6.60;99.20;;;;;;5010897;28;20201;-70
2023/03/17 02:29:27;;;;;;;3.47;2.77;;;6.50;99.20;;;;;;5010677;28;20297;-69
2023/03/17 02:31:54;;;;;;;4.50;3.30;;;6.40;99.20;;;;;;5010137;28;20674;-70
2023/03/17 02:34:21;;;;;;;5.10;3.03;;;6.40;99.30;;;;;;5000606;28;20293;-70
2023/03/17 02:36:48;;;;;;;5.53;3.23;;;6.40;99.40;;;;;;4998569;28;20320;-70
2023/03/17 02:39:16;;;;;;;4.10;2.73;;;6.40;99.40;;;;;;5010105;28;20316;-69
2023/03/17 02:41:43;;;;;;;4.83;3.30;;;6.40;99.40;;;;;;5010006;28;20287;-70
2023/03/17 02:44:10;;;;;;;4.37;3.23;;;6.40;99.50;;;;;;5010133;28;20292;-69
2023/03/17 02:46:37;;;;;;;3.50;3.00;;;6.40;99.50;;;;;;5010167;28;20569;-70
2023/03/17 02:49:05;;;;;;;3.50;3.20;;;6.40;99.50;;;;;;5009758;28;20690;-69
2023/03/17 02:51:32;;;;;;;3.30;2.63;;;6.30;99.60;;;;;;5010095;28;20600;-69
2023/03/17 02:53:59;;;;;;;5.77;3.30;;;6.30;99.70;;;;;;5009974;28;20252;-69
2023/03/17 02:56:28;;;;;;;6.03;3.27;;;6.30;99.70;;;;;;5009688;28;20316;-69
2023/03/17 02:58:55;;;;;;;4.37;3.30;;;6.30;99.70;;;;;;5009527;28;20213;-69
2023/03/17 03:01:22;;;;;;;3.03;2.73;;;6.30;99.70;;;;;;5010136;28;20217;-69
2023/03/17 03:03:49;;;;;;;3.10;2.77;;;6.30;99.90;;;;;;5009866;28;20296;-69
2023/03/17 03:06:15;;;;;;;3.53;3.13;;;6.30;99.80;;;;;;5009816;28;20304;-70
2023/03/17 03:08:42;;;;;;;3.33;3.03;;;6.30;99.90;;;;;;5009674;28;20300;-70
2023/03/17 03:11:09;;;;;;;3.27;2.97;;;6.30;99.80;;;;;;5005676;28;20238;-69
2023/03/17 03:13:38;;;;;;;3.73;3.10;;;6.30;99.90;;;;;;4990055;28;20234;-69
2023/03/17 03:16:05;;;;;;;3.03;2.80;;;6.30;99.90;;;;;;5003720;28;20316;-70
2023/03/17 03:18:32;;;;;;;3.67;3.10;;;6.30;99.90;;;;;;5008716;28;20284;-69
2023/03/17 03:20:59;;;;;;;4.03;3.00;;;6.30;99.90;;;;;;5006576;28;20217;-70
2023/03/17 03:23:27;;;;;;;3.30;3.00;;;6.30;99.90;;;;;;5008579;28;20659;-69
2023/03/17 03:25:53;;;;;;;4.87;3.40;;;6.30;99.90;;;;;;5007448;28;20233;-69
2023/03/17 03:28:20;;;;;;;3.83;2.90;;;6.30;99.90;;;;;;5009123;28;20292;-70
2023/03/17 03:30:49;;;;;;;4.27;3.27;;;6.30;99.90;;;;;;5008181;28;20208;-69
2023/03/17 03:33:17;;;;;;;6.17;3.23;;;6.30;99.90;;;;;;5007714;28;20484;-69
2023/03/17 03:35:44;;;;;;;4.07;3.07;;;6.30;99.90;;;;;;5007279;28;20253;-69
2023/03/17 03:38:12;;;;;;;4.33;3.20;;;6.30;99.90;;;;;;4988326;28;20206;-69
2023/03/17 03:40:39;;;;;;;5.40;3.70;;;6.20;99.90;;;;;;4996616;28;20202;-69
2023/03/17 03:43:06;;;;;;;3.40;3.07;;;6.30;99.90;;;;;;5006905;28;20304;-69
2023/03/17 03:45:34;;;;;;;5.50;2.80;;;6.20;99.90;;;;;;4987526;28;20346;-71
2023/03/17 03:48:02;;;;;;;7.07;3.77;;;6.20;99.90;;;;;;4987142;28;20300;-70
2023/03/17 03:50:29;;;;;;;3.70;3.23;;;6.20;99.90;;;;;;5006833;28;20323;-71
2023/03/17 03:52:56;;;;;;;3.70;2.87;;;6.30;99.90;;;;;;5006623;28;20603;-69
2023/03/17 03:55:23;;;;;;;3.87;2.90;;;6.20;99.90;;;;;;5006893;28;20301;-71
2023/03/17 03:57:50;;;;;;;5.57;3.30;;;6.20;99.90;;;;;;5007325;28;20320;-70
2023/03/17 04:00:18;;;;;;;3.40;2.83;;;6.20;99.90;;;;;;5007155;28;20258;-69
2023/03/17 04:02:45;;;;;;;5.13;3.40;;;6.20;99.90;;;;;;5006989;28;20288;-70
2023/03/17 04:05:14;;;;;;;4.27;3.10;;;6.20;99.90;;;;;;5006927;28;20300;-70
2023/03/17 04:07:42;;;;;;;3.90;3.57;;;6.20;99.90;;;;;;5006090;28;20217;-69
2023/03/17 04:10:10;;;;;;;4.10;3.03;;;6.20;99.90;;;;;;5006685;28;20432;-69
2023/03/17 04:12:37;;;;;;;3.93;3.17;;;6.20;99.90;;;;;;5005749;28;20213;-69
2023/03/17 04:15:05;;;;;;;3.83;3.10;;;6.10;99.90;;;;;;5006371;28;20583;-70
2023/03/17 04:17:32;;;;;;;3.60;3.30;;;6.10;99.90;;;;;;5007502;28;21012;-70
2023/03/17 04:19:59;;;;;;;3.60;2.90;;;6.10;99.90;;;;;;5006667;28;20323;-70
2023/03/17 04:22:27;;;;;;;4.50;3.00;;;6.10;99.90;;;;;;5007469;28;20206;-69
2023/03/17 04:24:54;;;;;;;4.10;2.73;;;6.10;99.90;;;;;;5008246;28;20751;-70
2023/03/17 04:27:21;;;;;;;5.40;3.20;;;6.10;99.90;;;;;;5007262;28;20664;-70
2023/03/17 04:29:48;;;;;;;3.80;3.10;;;6.00;99.90;;;;;;5007640;28;20213;-69
2023/03/17 04:32:15;;;;;;;3.70;3.00;;;6.10;99.90;;;;;;5008007;28;20209;-70
2023/03/17 04:34:42;;;;;;;3.83;3.20;;;6.10;99.90;;;;;;5008162;28;20296;-70
2023/03/17 04:37:10;;;;;;;3.67;3.13;;;6.10;99.90;;;;;;5007814;28;20243;-69
2023/03/17 04:39:39;;;;;;;3.33;3.00;;;6.10;99.90;;;;;;5007947;28;20292;-70
2023/03/17 04:42:06;;;;;;;3.20;2.90;;;6.00;99.90;;;;;;5007843;28;20220;-70
2023/03/17 04:44:33;;;;;;;3.30;2.83;;;6.00;99.90;;;;;;5007759;28;20216;-69
2023/03/17 04:47:00;;;;;;;3.57;3.27;;;6.00;99.90;;;;;;5007821;28;20209;-69
2023/03/17 04:49:28;;;;;;;3.73;3.03;;;6.00;99.90;;;;;;5007354;28;20216;-69
2023/03/17 04:51:55;;;;;;;3.80;3.17;;;6.00;99.90;;;;;;5007710;28;20211;-69
2023/03/17 04:54:22;;;;;;;3.27;2.97;;;6.00;99.90;;;;;;5007988;28;20232;-69
2023/03/17 04:56:51;;;;;;;5.23;2.77;;;6.00;99.90;;;;;;5007749;28;20332;-69
2023/03/17 04:59:18;;;;;;;3.90;3.17;;;6.00;99.90;;;;;;5007501;28;20209;-69
2023/03/17 05:01:45;;;;;;;4.50;3.10;;;6.00;99.80;;;;;;5007496;28;20249;-69
2023/03/17 05:04:12;;;;;;;3.00;2.77;;;6.00;99.80;;;;;;5007363;28;20691;-69
2023/03/17 05:06:39;;;;;;;3.20;2.90;;;6.00;99.90;;;;;;5007405;28;20313;-69
2023/03/17 05:09:06;;;;;;;4.03;3.33;;;6.00;99.90;;;;;;5007195;28;20679;-69
2023/03/17 05:11:33;;;;;;;3.50;3.20;;;5.90;99.80;;;;;;5007405;28;20649;-69
2023/03/17 05:14:01;;;;;;;3.87;3.10;;;6.00;99.90;;;;;;5007334;28;20304;-69
2023/03/17 05:16:29;;;;;;;3.20;2.83;;;6.00;99.90;;;;;;5007389;28;20236;-69
2023/03/17 05:18:56;;;;;;;3.47;3.10;;;6.00;99.80;;;;;;5007537;28;20212;-69
2023/03/17 05:21:22;;;;;;;4.20;2.97;;;5.90;99.70;;;;;;5007366;28;20245;-69
2023/03/17 05:23:49;;;;;;;5.60;3.00;;;5.90;99.90;;;;;;5007106;28;20736;-69
2023/03/17 05:26:17;;;;;;;3.47;3.17;;;5.90;99.80;;;;;;5007529;28;20217;-69
2023/03/17 05:28:44;;;;;;;3.10;2.80;;;5.90;99.70;;;;;;5007552;28;20267;-69
2023/03/17 05:31:12;;;;;;;4.47;3.07;;;5.90;99.70;;;;;;5007332;28;21061;-69
2023/03/17 05:33:39;;;;;;;3.73;2.73;;;5.90;99.70;;;;;;5007221;28;20248;-69
2023/03/17 05:36:07;;;;;;;4.07;2.87;;;5.90;99.60;;;;;;5010114;28;20239;-69
2023/03/17 05:38:34;;;;;;;4.17;2.93;;;5.90;99.70;;;;;;5027009;28;20879;-69
2023/03/17 05:41:01;;;;;;;3.03;2.70;;;5.90;99.70;;;;;;5015276;28;20288;-69
2023/03/17 05:43:28;;;;;;;3.73;3.00;;;5.90;99.70;;;;;;5007291;28;20292;-70
2023/03/17 05:45:55;;;;;;;3.50;3.20;;;5.90;99.90;;;;;;5007249;28;20201;-69
2023/03/17 05:48:24;;;;;;;4.80;3.07;;;5.90;99.90;;;;;;5008503;28;20304;-69
2023/03/17 05:50:51;;;;;;;4.03;3.10;;;5.90;99.90;;;;;;5011317;28;20213;-69
2023/03/17 05:53:18;;;;;;;2.80;2.60;;;5.90;99.80;;;;;;5011467;28;20237;-69
2023/03/17 05:55:45;;;;;;;3.27;3.07;;;5.90;99.80;;;;;;5011419;28;20228;-69
2023/03/17 05:58:14;;;;;;;3.40;3.03;;;5.90;99.80;;;;;;5010775;28;20776;-69
2023/03/17 06:00:41;;;;;;;3.17;2.93;;;5.90;99.90;;;;;;5011026;28;20212;-69
2023/03/17 06:03:08;;;;;;;3.47;3.03;;;5.90;99.70;;;;;;5010733;28;20652;-69
2023/03/17 06:05:37;;;;;;;4.60;3.20;;;5.90;99.80;;;;;;5011037;28;20207;-69
2023/03/17 06:08:04;;;;;;;3.00;2.70;;;5.90;99.60;;;;;;5010830;28;20300;-69
2023/03/17 06:10:31;;;;;;;3.93;2.90;;;5.90;99.70;;;;;;5010395;28;20244;-69
2023/03/17 06:12:58;;;;;;;3.43;2.70;;;5.90;99.50;;;;;;4991676;28;20777;-69
2023/03/17 06:15:26;;;;;;;3.30;3.00;;;5.90;99.50;;;;;;5007575;28;20216;-69
2023/03/17 06:17:53;;;;;;;2.80;2.60;;;5.80;99.60;;;;;;5010628;28;20323;-69
2023/03/17 06:20:20;;;;;;;3.70;2.77;;;5.90;99.60;;;;;;5010246;28;20237;-69
2023/03/17 06:22:49;;;;;;;2.80;2.40;;;5.90;99.50;;;;;;5010167;28;20296;-68
2023/03/17 06:25:16;;;;;;;3.13;2.83;;;5.90;99.20;;;;;;5010583;28;20272;-69
2023/03/17 06:27:43;;;;;;;3.33;2.90;;;5.90;99.40;;;;;;5010489;28;20206;-69
2023/03/17 06:30:12;;;;;;;3.47;2.60;;;5.90;99.60;;;;;;5010152;28;20267;-69
2023/03/17 06:32:39;;;;;;;7.60;2.80;;;5.90;99.40;;;;;;5010486;28;20209;-69
2023/03/17 06:35:06;;;;;;;3.23;2.93;;;5.90;99.60;;;;;;5010475;28;20220;-70
2023/03/17 06:37:34;;;;;;;3.37;2.67;;;5.90;99.20;;;;;;5009790;28;20328;-69
2023/03/17 06:40:04;;;;;;;3.97;2.90;;;5.90;99.30;;;;;;5010484;28;20205;-70
2023/03/17 06:42:31;;;;;;;2.83;2.63;;;5.90;99.30;;;;;;5010142;28;20346;-69
2023/03/17 06:44:58;;;;;;;3.07;2.77;;;5.90;99.30;;;;;;5010019;28;20205;-69
2023/03/17 06:47:25;;;;;;;4.57;2.67;;;6.00;99.30;;;;;;5010255;28;20295;-70
2023/03/17 06:49:52;;;;;;;3.23;2.63;;;6.00;99.20;;;;;;5010023;28;20236;-69
2023/03/17 06:52:19;;;;;;;5.83;2.43;;;6.00;99.20;;;;;;5009874;28;20211;-70
2023/03/17 06:54:46;;;;;;;3.13;2.60;;;6.00;99.10;;;;;;5009972;28;20288;-69
2023/03/17 06:57:14;;;;;;;3.80;2.73;;;6.00;99.50;;;;;;5009885;28;20233;-69
2023/03/17 06:59:41;;;;;;;3.27;2.50;;;6.10;99.30;;;;;;5008127;28;20304;-69
2023/03/17 07:02:10;;;;;;;3.50;2.50;;;6.10;99.00;;;;;;5009679;28;20688;-69
2023/03/17 07:04:37;;;;;;;3.10;2.80;;;6.00;99.10;;;;;;5009536;28;20656;-69
2023/03/17 07:07:05;;;;;;;2.90;2.50;;;6.10;99.30;;;;;;5010107;28;20231;-69
2023/03/17 07:09:33;;;;;;;3.30;2.67;;;6.10;99.10;;;;;;5009506;28;20708;-69
2023/03/17 07:12:03;;;;;;;4.20;2.90;;;6.10;99.10;;;;;;4999165;28;20236;-69
2023/03/17 07:14:32;;;;;;;4.97;2.67;;;6.10;98.90;;;;;;4996748;28;20643;-69
2023/03/17 07:16:59;;;;;;;3.00;2.80;;;6.10;98.80;;;;;;5009695;28;20233;-69
2023/03/17 07:19:26;;;;;;;3.17;2.80;;;6.20;98.90;;;;;;5009943;28;20222;-69
2023/03/17 07:21:54;;;;;;;2.77;2.57;;;6.20;98.70;;;;;;5009829;28;20213;-69
2023/03/17 07:24:21;;;;;;;3.00;2.70;;;6.30;98.60;;;;;;5009651;28;20206;-69
2023/03/17 07:26:49;;;;;;;3.00;2.70;;;6.30;98.80;;;;;;5009483;28;20727;-69
2023/03/17 07:29:16;;;;;;;4.93;2.73;;;6.40;98.90;;;;;;5009248;28;20208;-69
2023/03/17 07:31:44;;;;;;;4.93;3.00;;;6.50;98.60;;;;;;5009226;28;20259;-70
2023/03/17 07:34:12;;;;;;;4.37;3.10;;;6.50;98.50;;;;;;5009393;28;20249;-69
2023/03/17 07:36:40;;;;;;;2.43;2.20;;;6.50;98.50;;;;;;5008757;28;20664;-70
2023/03/17 07:39:07;;;;;;;4.70;3.10;;;6.50;98.50;;;;;;4992740;28;20226;-70
2023/03/17 07:41:35;;;;;;;4.23;2.93;;;6.50;98.30;;;;;;5005419;28;20854;-70
2023/03/17 07:44:03;;;;;;;3.53;2.53;;;6.50;98.30;;;;;;5008989;28;20705;-70
2023/03/17 07:46:30;;;;;;;5.27;2.90;;;6.50;98.50;;;;;;5008832;28;20248;-70
2023/03/17 07:48:59;;;;;;;4.90;2.93;;;6.60;98.40;;;;;;5008979;28;20210;-70
2023/03/17 07:51:26;;;;;;;3.70;3.13;;;6.60;98.80;;;;;;5009252;28;20388;-70
2023/03/17 07:54:01;;;;;;;2.80;2.60;;;6.60;98.40;;;;;;5008846;28;20209;-70
2023/03/17 07:56:29;;;;;;;4.33;3.20;;;6.60;98.70;;;;;;5008988;28;20197;-70
2023/03/17 07:58:59;;;;;;;4.73;2.57;;;6.70;98.60;;;;;;5008699;28;20303;-70
2023/03/17 08:01:27;;;;;;;2.57;2.37;;;6.80;98.50;;;;;;5008601;28;20220;-70
2023/03/17 08:03:55;;;;;;;3.00;2.80;;;6.90;98.20;;;;;;5008647;28;20238;-70
2023/03/17 08:06:25;;;;;;;4.50;2.97;;;6.90;98.30;;;;;;5008723;28;20209;-70
2023/03/17 08:08:53;;;;;;;4.37;2.63;;;7.00;98.50;;;;;;5008774;28;20705;-70
2023/03/17 08:11:20;;;;;;;2.50;2.30;;;7.00;98.10;;;;;;5002545;28;20242;-70
2023/03/17 08:13:56;;;;;;;6.10;2.70;;;7.00;98.30;;;;;;4988867;28;20293;-71
2023/03/17 08:16:23;;;;;;;4.30;2.77;;;7.10;97.80;;;;;;4988918;28;20285;-70
2023/03/17 08:18:49;;;;;;;2.50;2.30;;;7.10;98.00;;;;;;4988790;28;20317;-70
2023/03/17 08:21:16;;;;;;;3.13;2.80;;;7.10;97.80;;;;;;4988978;28;20210;-70
2023/03/17 08:23:45;;;;;;;2.70;2.50;;;7.20;97.90;;;;;;4988632;28;20646;-70
2023/03/17 08:26:14;;;;;;;4.03;2.50;;;7.20;97.80;;;;;;4988984;28;20264;-70
2023/03/17 08:28:41;;;;;;;3.47;2.60;;;7.30;98.00;;;;;;4988346;28;20217;-70
2023/03/17 08:31:11;;;;;;;3.40;3.00;;;7.40;97.70;;;;;;5003173;28;20221;-70
2023/03/17 08:33:39;;;;;;;7.60;2.90;;;7.50;97.30;;;;;;5007665;28;20594;-70
2023/03/17 08:36:08;;;;;;;3.40;2.43;;;7.50;97.70;;;;;;5010415;28;20220;-70
2023/03/17 08:38:36;;;;;;;3.17;2.40;;;7.60;97.60;;;;;;5027521;28;20790;-70
2023/03/17 08:41:06;;;;;;;2.70;2.40;;;7.60;97.00;;;;;;5015565;28;20213;-70
2023/03/17 08:43:34;;;;;;;3.10;2.80;;;7.60;97.00;;;;;;5007947;28;20205;-70
2023/03/17 08:46:05;;;;;;;2.70;2.50;;;7.60;97.00;;;;;;5007920;28;20233;-70
2023/03/17 08:48:33;;;;;;;2.53;2.33;;;7.70;97.10;;;;;;5007764;28;20210;-70
2023/03/17 08:51:00;;;;;;;2.93;2.63;;;7.70;96.50;;;;;;5007756;28;20260;-70
2023/03/17 08:53:28;;;;;;;2.90;2.70;;;7.80;96.70;;;;;;5007689;28;20648;-70
2023/03/17 08:55:56;;;;;;;3.00;2.70;;;7.80;96.80;;;;;;5009677;28;20205;-70
2023/03/17 08:58:26;;;;;;;3.37;2.87;;;7.90;96.60;;;;;;5026740;28;20236;-70
2023/03/17 09:00:53;;;;;;;2.70;2.50;;;7.90;96.40;;;;;;5027365;28;20803;-69
2023/03/17 09:03:21;;;;;;;2.43;2.33;;;7.90;96.70;;;;;;5027031;28;20274;-69
2023/03/17 09:05:48;;;;;;;2.80;2.53;;;7.90;96.70;;;;;;5027173;28;20213;-69
2023/03/17 09:08:16;;;;;;;3.33;3.03;;;7.90;96.50;;;;;;5009537;28;20239;-69
2023/03/17 09:10:44;;;;;;;3.00;2.70;;;8.00;96.30;;;;;;5007115;28;20232;-69
2023/03/17 09:13:11;;;;;;;3.37;3.07;;;8.00;96.50;;;;;;4987791;28;20313;-69
2023/03/17 09:15:39;;;;;;;2.60;2.40;;;8.10;96.50;;;;;;4987505;28;20241;-70
2023/03/17 09:18:08;;;;;;;3.10;2.80;;;8.20;96.20;;;;;;4987890;28;20257;-70
2023/03/17 09:20:36;;;;;;;3.20;2.50;;;8.20;96.30;;;;;;4987426;28;20230;-70
2023/03/17 09:23:07;;;;;;;5.73;2.57;;;8.30;96.70;;;;;;4987034;28;20687;-70
2023/03/17 09:25:35;;;;;;;3.23;2.93;;;8.40;96.60;;;;;;4988370;28;20199;-71
2023/03/17 09:28:02;;;;;;;3.07;2.70;;;8.50;96.40;;;;;;5007440;28;20232;-71
2023/03/17 09:30:29;;;;;;;4.93;3.07;;;8.50;96.70;;;;;;5007471;28;20252;-71
2023/03/17 09:32:59;;;;;;;5.40;3.33;;;8.60;95.90;;;;;;5007318;28;20296;-71
2023/03/17 09:35:26;;;;;;;3.00;2.80;;;8.70;95.90;;;;;;5007580;28;20209;-71
2023/03/17 09:37:54;;;;;;;2.83;2.63;;;8.80;95.90;;;;;;5024160;28;20232;-71
2023/03/17 09:40:27;;;;;;;3.30;2.67;;;8.90;95.50;;;;;;5020337;28;20213;-71
2023/03/17 09:43:03;;;;;;;2.80;2.60;;;9.00;96.00;;;;;;5007428;28;20213;-71
2023/03/17 09:45:33;;;;;;;4.07;2.70;;;9.00;95.90;;;;;;5007102;28;20244;-71
2023/03/17 09:48:18;;;;;;;3.50;2.83;;;9.20;95.80;;;;;;5007269;28;20292;-70
2023/03/17 09:50:52;;;;;;;3.33;2.70;;;9.30;95.90;;;;;;5007021;28;20200;-70
2023/03/17 09:53:25;;;;;;;3.13;2.83;;;9.30;95.40;;;;;;5018869;28;20216;-70
2023/03/17 09:55:56;;;;;;;3.03;2.57;;;9.40;95.20;;;;;;5026682;28;21001;-70
2023/03/17 09:58:29;;;;;;;3.07;2.60;;;9.50;95.10;;;;;;5026301;28;20275;-70
2023/03/17 10:00:56;;;;;;;3.70;3.30;;;9.50;95.10;;;;;;5026982;28;20325;-70
2023/03/17 10:03:26;;;;;;;3.30;2.60;;;9.60;95.40;;;;;;5018166;28;20213;-71
2023/03/17 10:05:54;;;;;;;3.50;2.70;;;9.70;95.00;;;;;;5006909;28;20208;-70
2023/03/17 10:08:23;;;;;;;3.13;2.80;;;9.70;95.30;;;;;;5007279;28;20307;-71
2023/03/17 10:10:55;;;;;;;3.60;2.87;;;9.80;95.50;;;;;;5005424;28;20234;-70
2023/03/17 10:13:45;;;;;;;3.83;2.90;;;9.90;95.20;;;;;;4986999;28;20195;-71
2023/03/17 10:16:14;;;;;;;4.40;2.90;;;9.90;95.00;;;;;;4986971;28;20681;-70
2023/03/17 10:18:49;;;;;;;3.13;2.93;;;10.00;94.60;;;;;;4986611;28;20241;-70
2023/03/17 10:21:23;;;;;;;3.73;3.00;;;10.00;94.30;;;;;;4987027;28;20645;-70
2023/03/17 10:23:51;;;;;;;2.80;2.60;;;10.10;94.30;;;;;;5002792;28;20664;-71
2023/03/17 10:26:28;;;;;;;3.37;2.97;;;10.10;94.70;;;;;;5006355;28;20210;-70
2023/03/17 10:28:55;;;;;;;4.93;3.17;;;10.10;94.70;;;;;;5006335;28;20778;-70
2023/03/17 10:31:29;;;;;;;3.80;2.63;;;10.20;94.40;;;;;;5006735;28;20297;-70
2023/03/17 10:34:12;;;;;;;3.17;2.90;;;10.20;94.70;;;;;;5006920;28;20190;-70
2023/03/17 10:36:43;;;;;;;3.20;2.80;;;10.30;94.80;;;;;;5010277;28;20233;-70
2023/03/17 10:39:13;;;;;;;4.10;2.87;;;10.30;94.90;;;;;;5010117;28;20222;-71
2023/03/17 10:41:47;;;;;;;3.13;2.80;;;10.30;94.60;;;;;;5002295;28;20648;-71
2023/03/17 10:44:22;;;;;;;4.60;3.53;;;10.40;94.50;;;;;;4990542;28;20281;-71
2023/03/17 10:46:55;;;;;;;5.33;3.80;;;10.50;94.80;;;;;;4990566;28;20745;-71
2023/03/17 10:49:25;;;;;;;3.77;3.10;;;10.50;94.80;;;;;;5000383;28;20213;-71
2023/03/17 10:51:54;;;;;;;4.77;3.80;;;10.60;94.80;;;;;;5009487;28;20836;-71
2023/03/17 10:54:25;;;;;;;3.10;2.90;;;10.70;94.50;;;;;;5010108;28;20205;-71
2023/03/17 10:57:01;;;;;;;4.40;3.23;;;10.70;94.80;;;;;;5009679;28;20622;-71
2023/03/17 10:59:31;;;;;;;3.17;2.90;;;10.80;94.50;;;;;;5009156;28;20235;-71
2023/03/17 11:02:00;;;;;;;3.80;2.93;;;10.80;94.60;;;;;;5009933;28;20194;-71
2023/03/17 11:04:31;;;;;;;3.90;3.47;;;10.90;94.60;;;;;;5009601;28;20699;-71
2023/03/17 11:07:00;;;;;;;4.60;3.13;;;10.90;95.10;;;;;;5009997;28;20312;-71
2023/03/17 11:09:33;;;;;;;3.23;2.93;;;11.00;95.00;;;;;;5009636;28;20256;-71
2023/03/17 11:12:03;;;;;;;3.53;3.20;;;11.10;94.10;;;;;;4999413;28;20297;-71
2023/03/17 11:14:30;;;;;;;3.27;3.00;;;11.20;94.00;;;;;;4989884;28;20293;-71
2023/03/17 11:17:00;;;;;;;3.77;3.00;;;11.30;94.10;;;;;;4989908;28;20220;-71
2023/03/17 11:19:37;;;;;;;3.43;3.13;;;11.30;94.10;;;;;;5000492;28;20328;-71
2023/03/17 11:22:11;;;;;;;3.23;2.93;;;11.40;93.90;;;;;;5009812;28;20194;-71
2023/03/17 11:24:44;;;;;;;4.00;3.13;;;11.50;94.40;;;;;;4989770;28;20198;-71
2023/03/17 11:27:18;;;;;;;2.97;2.77;;;11.50;94.10;;;;;;4990100;28;20285;-71
2023/03/17 11:30:05;;;;;;;4.17;2.97;;;11.60;94.10;;;;;;4989626;28;20293;-71
2023/03/17 11:32:39;;;;;;;2.93;2.60;;;11.70;94.30;;;;;;4989761;28;20198;-71
2023/03/17 11:35:27;;;;;;;3.03;2.70;;;11.70;94.30;;;;;;4989806;28;20268;-71
2023/03/17 11:38:09;;;;;;;3.23;2.43;;;11.80;93.70;;;;;;5024946;28;20296;-71
2023/03/17 11:40:46;;;;;;;3.27;2.80;;;11.90;93.80;;;;;;5020278;28;20205;-71
2023/03/17 11:43:28;;;;;;;2.73;2.53;;;12.00;93.70;;;;;;4989444;28;20333;-71
2023/03/17 11:46:01;;;;;;;3.30;3.00;;;12.00;93.60;;;;;;5001746;28;20612;-71
2023/03/17 11:48:41;;;;;;;4.67;3.37;;;12.00;93.20;;;;;;5008149;28;20215;-70
2023/03/17 11:51:19;;;;;;;2.73;2.53;;;12.10;93.50;;;;;;5008203;28;20333;-70
2023/03/17 11:54:02;;;;;;;3.63;2.53;;;12.10;93.20;;;;;;5007884;28;20201;-70
2023/03/17 11:56:37;;;;;;;4.27;3.00;;;12.20;93.20;;;;;;5007079;28;20248;-70
2023/03/17 11:59:10;;;;;;;3.97;3.03;;;12.30;93.70;;;;;;5005654;28;20224;-70
2023/03/17 12:01:48;;;;;;;3.60;3.00;;;12.30;93.50;;;;;;5007481;28;20209;-71
2023/03/17 12:04:22;;;;;;;3.57;3.27;;;12.30;93.40;;;;;;5007981;28;20197;-71
2023/03/17 12:06:57;;;;;;;4.17;3.77;;;12.30;93.00;;;;;;5008076;28;20313;-71
2023/03/17 12:09:29;;;;;;;4.50;3.77;;;12.30;93.10;;;;;;5007470;28;20251;-71
2023/03/17 12:11:59;;;;;;;3.53;3.23;;;12.40;93.30;;;;;;5008091;28;20241;-71
2023/03/17 12:14:29;;;;;;;3.37;3.07;;;12.50;93.50;;;;;;5006992;28;20309;-72
2023/03/17 12:17:03;;;;;;;3.27;2.97;;;12.50;93.60;;;;;;4988362;28;20225;-72
2023/03/17 12:19:37;;;;;;;3.17;2.70;;;12.50;92.90;;;;;;4992119;28;20324;-72
2023/03/17 12:22:09;;;;;;;4.17;2.80;;;12.50;93.20;;;;;;5007636;28;20289;-72
2023/03/17 12:24:42;;;;;;;3.43;3.13;;;12.60;92.90;;;;;;5007485;28;20201;-72
2023/03/17 12:27:14;;;;;;;3.00;2.60;;;12.60;92.30;;;;;;5007467;28;20212;-72
2023/03/17 12:29:46;;;;;;;3.10;2.60;;;12.60;92.70;;;;;;5007167;28;20194;-72
2023/03/17 12:32:19;;;;;;;4.33;2.53;;;12.60;92.80;;;;;;5007684;28;20202;-71
2023/03/17 12:34:51;;;;;;;2.93;2.40;;;12.60;92.70;;;;;;5007656;28;20667;-72
2023/03/17 12:37:21;;;;;;;2.97;2.67;;;12.70;92.60;;;;;;5007675;28;20193;-71
2023/03/17 12:39:57;;;;;;;2.73;2.47;;;12.70;92.40;;;;;;5006223;28;20233;-71
2023/03/17 12:42:52;;;;;;;2.77;2.53;;;12.70;92.30;;;;;;4993533;28;20256;-72
2023/03/17 12:45:36;;;;;;;4.70;2.50;;;12.80;92.20;;;;;;4981953;28;20202;-71
2023/03/17 12:48:21;;;;;;;5.00;2.67;;;12.80;92.30;;;;;;5007151;28;20236;-72
2023/03/17 12:51:22;;;;;;;2.80;2.60;;;12.80;92.40;;;;;;4995250;28;20708;-72
2023/03/17 12:53:51;;;;;;;2.90;2.60;;;12.80;92.60;;;;;;5000448;28;20569;-71
2023/03/17 12:56:21;;;;;;;2.50;2.30;;;12.80;93.00;;;;;;5006951;28;20208;-72
2023/03/17 12:58:50;;;;;;;2.60;2.43;;;12.80;93.10;;;;;;5006337;28;20304;-72
2023/03/17 13:01:30;;;;;;;3.60;2.47;;;12.80;93.60;;;;;;5005114;28;20206;-72
2023/03/17 13:04:03;;;;;;;2.40;2.20;;;12.80;93.40;;;;;;5006603;28;20228;-72
2023/03/17 13:06:35;;;;;;;3.03;2.73;;;12.80;93.10;;;;;;5007276;28;20288;-72